This demonstration page uses our WeatherBlox Daily Observations layout. Learn more.

Left ArrowRight Arrow

Hourly Observations for September 24, 2016

Temp ( °F °C ) Dew Point ( °F °C ) Humidity (%) Winds ( mph kmh ) Pressure ( in mb ) Visibility ( mi km ) Precip ( " mm )
12:51 am 00:51 Clear 57 13.9 47 8.3 69 69 Calm 29.93 1014 10 16.0934 0 0
1:51 am 01:51 Clear 56 13.3 47 8.3 72 72 ESE 6 9 29.93 1014 10 16.0934 0 0
2:51 am 02:51 Clear 53 11.7 46 7.8 77 77 WNW 6 9 29.95 1014 10 16.0934 0 0
3:51 am 03:51 Clear 52 11.1 46 7.8 80 80 Calm 29.96 1014 10 16.0934 0 0
4:51 am 04:51 undefined 54 12.2 46 7.8 75 75 undefined N/A 29.95 1014 10 16.0934 0 0
5:51 am 05:51 undefined N/A N/A N/A undefined N/A N/A N/A 0 0
6:51 am 06:51 undefined N/A N/A N/A undefined N/A N/A N/A 0 0
7:51 am 07:51 undefined N/A N/A N/A undefined N/A N/A N/A 0 0
8:51 am 08:51 undefined 64 17.8 46 7.8 52 52 Calm 30 1016 10 16.0934 0 0
9:51 am 09:51 Sunny 69 20.6 45 7.2 42 42 W 5 7 29.99 1016 10 16.0934 0 0
10:51 am 10:51 Sunny 73 22.8 39 3.9 29 29 VRB 6 9 29.98 1015 10 16.0934 0 0
11:51 am 11:51 Sunny 76 24.4 37 2.8 24 24 VRB 3 6 29.95 1014 10 16.0934 0 0
12:51 pm 12:51 Sunny 77 25 38 3.3 24 24 VRB 3 6 29.92 1013 10 16.0934 0 0
1:51 pm 13:51 Sunny 81 27.2 37 2.8 21 21 W 16 26 29.88 1012 10 16.0934 0 0
2:51 pm 14:51 Sunny 82 27.8 33 0.6 17 17 WNW 13 20 29.87 1011 10 16.0934 0 0
3:51 pm 15:51 Sunny 82 27.8 29 -1.7 14 14 WNW 15 24 29.86 1011 10 16.0934 0 0
4:51 pm 16:51 Sunny 82 27.8 27 -2.8 13 13 WNW 13 20 29.85 1011 10 16.0934 0 0
5:51 pm 17:51 Sunny 78 25.6 26 -3.3 15 15 NW 8 13 29.77 1008 10 16.0934 0 0
6:51 pm 18:51 Clear 70 21.1 31 -0.6 23 23 N 6 9 29.83 1010 10 16.0934 0 0
7:51 pm 19:51 Clear 68 20 30 -1.1 24 24 NNW 8 13 29.85 1011 10 16.0934 0 0.0254
8:51 pm 20:51 Clear 69 20.6 28 -2.2 22 22 NW 10 17 29.9 1013 10 16.0934 0 0
9:51 pm 21:51 Clear 66 18.9 29 -1.7 25 25 NNW 10 17 29.9 1013 10 16.0934 0 0
10:51 pm 22:51 Clear 64 17.8 28 -2.2 26 26 NW 12 19 29.9 1013 10 16.0934 0 0
11:51 pm 23:51 Clear 64 17.8 27 -2.8 25 25 NW 10 17 29.9 1013 10 16.0934 0 0

Powered by AerisWeather